sensor_id;sensor_type;location;lat;lon;timestamp;P1;durP1;ratioP1;P2;durP2;ratioP2
50495;SDS011;38806;51.554;5.704;2023-03-24T00:01:00;9.90;;;4.47;;
50495;SDS011;38806;51.554;5.704;2023-03-24T00:03:00;6.80;;;3.25;;
50495;SDS011;38806;51.554;5.704;2023-03-24T00:05:02;6.75;;;2.95;;
50495;SDS011;38806;51.554;5.704;2023-03-24T00:07:02;5.90;;;2.70;;
50495;SDS011;38806;51.554;5.704;2023-03-24T00:09:03;6.28;;;3.03;;
50495;SDS011;38806;51.554;5.704;2023-03-24T00:11:07;7.65;;;3.22;;
50495;SDS011;38806;51.554;5.704;2023-03-24T00:13:07;5.68;;;3.30;;
50495;SDS011;38806;51.554;5.704;2023-03-24T00:15:09;7.18;;;4.10;;
50495;SDS011;38806;51.554;5.704;2023-03-24T00:17:10;8.02;;;3.45;;
50495;SDS011;38806;51.554;5.704;2023-03-24T00:19:12;11.27;;;3.88;;
50495;SDS011;38806;51.554;5.704;2023-03-24T00:21:13;6.45;;;3.58;;
50495;SDS011;38806;51.554;5.704;2023-03-24T00:23:14;6.78;;;3.55;;
50495;SDS011;38806;51.554;5.704;2023-03-24T00:25:18;10.43;;;3.22;;
50495;SDS011;38806;51.554;5.704;2023-03-24T00:27:19;9.13;;;4.05;;
50495;SDS011;38806;51.554;5.704;2023-03-24T00:29:20;8.57;;;3.60;;
50495;SDS011;38806;51.554;5.704;2023-03-24T00:31:20;10.93;;;3.97;;
50495;SDS011;38806;51.554;5.704;2023-03-24T00:33:21;8.38;;;4.07;;
50495;SDS011;38806;51.554;5.704;2023-03-24T00:35:21;8.13;;;3.42;;
50495;SDS011;38806;51.554;5.704;2023-03-24T00:37:22;9.38;;;3.85;;
50495;SDS011;38806;51.554;5.704;2023-03-24T00:39:23;8.90;;;4.18;;
50495;SDS011;38806;51.554;5.704;2023-03-24T00:41:23;5.55;;;3.55;;
50495;SDS011;38806;51.554;5.704;2023-03-24T00:43:27;9.32;;;3.75;;
50495;SDS011;38806;51.554;5.704;2023-03-24T00:45:27;9.75;;;4.22;;
50495;SDS011;38806;51.554;5.704;2023-03-24T00:47:28;6.10;;;3.10;;
50495;SDS011;38806;51.554;5.704;2023-03-24T00:49:29;8.98;;;4.07;;
50495;SDS011;38806;51.554;5.704;2023-03-24T00:51:41;5.43;;;3.38;;
50495;SDS011;38806;51.554;5.704;2023-03-24T00:53:42;5.50;;;3.08;;
50495;SDS011;38806;51.554;5.704;2023-03-24T00:55:43;5.15;;;2.67;;
50495;SDS011;38806;51.554;5.704;2023-03-24T00:57:52;8.20;;;3.60;;
50495;SDS011;38806;51.554;5.704;2023-03-24T00:59:54;7.00;;;4.00;;
50495;SDS011;38806;51.554;5.704;2023-03-24T01:01:55;6.10;;;3.42;;
50495;SDS011;38806;51.554;5.704;2023-03-24T01:03:57;6.18;;;3.17;;
50495;SDS011;38806;51.554;5.704;2023-03-24T01:05:59;6.05;;;3.35;;
50495;SDS011;38806;51.554;5.704;2023-03-24T01:08:00;5.68;;;3.28;;
50495;SDS011;38806;51.554;5.704;2023-03-24T01:10:03;6.35;;;3.08;;
50495;SDS011;38806;51.554;5.704;2023-03-24T01:12:04;13.60;;;4.03;;
50495;SDS011;38806;51.554;5.704;2023-03-24T01:14:04;6.15;;;3.05;;
50495;SDS011;38806;51.554;5.704;2023-03-24T01:16:04;7.35;;;3.55;;
50495;SDS011;38806;51.554;5.704;2023-03-24T01:18:05;6.13;;;3.25;;
50495;SDS011;38806;51.554;5.704;2023-03-24T01:20:08;4.50;;;2.70;;
50495;SDS011;38806;51.554;5.704;2023-03-24T01:22:10;8.75;;;3.92;;
50495;SDS011;38806;51.554;5.704;2023-03-24T01:24:11;5.72;;;2.65;;
50495;SDS011;38806;51.554;5.704;2023-03-24T01:26:12;6.28;;;3.05;;
50495;SDS011;38806;51.554;5.704;2023-03-24T01:28:13;6.72;;;3.42;;
50495;SDS011;38806;51.554;5.704;2023-03-24T01:30:15;9.25;;;3.35;;
50495;SDS011;38806;51.554;5.704;2023-03-24T01:32:15;6.60;;;3.15;;
50495;SDS011;38806;51.554;5.704;2023-03-24T01:34:16;6.97;;;3.47;;
50495;SDS011;38806;51.554;5.704;2023-03-24T01:36:16;8.13;;;3.42;;
50495;SDS011;38806;51.554;5.704;2023-03-24T01:38:16;6.43;;;4.00;;
50495;SDS011;38806;51.554;5.704;2023-03-24T01:40:30;8.07;;;3.60;;
50495;SDS011;38806;51.554;5.704;2023-03-24T01:42:30;6.72;;;3.67;;
50495;SDS011;38806;51.554;5.704;2023-03-24T01:44:32;14.07;;;4.80;;
50495;SDS011;38806;51.554;5.704;2023-03-24T01:46:32;5.78;;;3.33;;
50495;SDS011;38806;51.554;5.704;2023-03-24T01:48:35;6.85;;;3.63;;
50495;SDS011;38806;51.554;5.704;2023-03-24T01:50:36;6.47;;;3.80;;
50495;SDS011;38806;51.554;5.704;2023-03-24T01:52:37;5.65;;;3.00;;
50495;SDS011;38806;51.554;5.704;2023-03-24T01:54:39;6.78;;;3.30;;
50495;SDS011;38806;51.554;5.704;2023-03-24T01:56:42;6.35;;;3.67;;
50495;SDS011;38806;51.554;5.704;2023-03-24T01:58:45;5.40;;;3.10;;
50495;SDS011;38806;51.554;5.704;2023-03-24T02:00:46;6.15;;;3.85;;
50495;SDS011;38806;51.554;5.704;2023-03-24T02:02:48;6.53;;;3.38;;
50495;SDS011;38806;51.554;5.704;2023-03-24T02:04:59;7.18;;;3.55;;
50495;SDS011;38806;51.554;5.704;2023-03-24T02:07:04;8.73;;;3.42;;
50495;SDS011;38806;51.554;5.704;2023-03-24T02:09:07;8.45;;;3.20;;
50495;SDS011;38806;51.554;5.704;2023-03-24T02:11:08;8.63;;;4.70;;
50495;SDS011;38806;51.554;5.704;2023-03-24T02:13:08;5.18;;;3.72;;
50495;SDS011;38806;51.554;5.704;2023-03-24T02:15:09;6.40;;;3.40;;
50495;SDS011;38806;51.554;5.704;2023-03-24T02:17:13;7.72;;;3.85;;
50495;SDS011;38806;51.554;5.704;2023-03-24T02:19:41;7.78;;;4.07;;
50495;SDS011;38806;51.554;5.704;2023-03-24T02:21:56;6.88;;;4.20;;
50495;SDS011;38806;51.554;5.704;2023-03-24T02:26:23;5.72;;;3.65;;
50495;SDS011;38806;51.554;5.704;2023-03-24T02:28:48;5.90;;;3.83;;
50495;SDS011;38806;51.554;5.704;2023-03-24T02:39:58;6.93;;;4.25;;
50495;SDS011;38806;51.554;5.704;2023-03-24T02:46:26;7.38;;;4.53;;
50495;SDS011;38806;51.554;5.704;2023-03-24T02:48:33;7.70;;;3.72;;
50495;SDS011;38806;51.554;5.704;2023-03-24T02:52:48;6.85;;;4.40;;
50495;SDS011;38806;51.554;5.704;2023-03-24T02:55:00;8.15;;;5.03;;
50495;SDS011;38806;51.554;5.704;2023-03-24T02:59:05;7.38;;;4.00;;
50495;SDS011;38806;51.554;5.704;2023-03-24T03:01:10;6.93;;;4.70;;
50495;SDS011;38806;51.554;5.704;2023-03-24T03:03:23;9.25;;;4.78;;
50495;SDS011;38806;51.554;5.704;2023-03-24T03:05:30;9.73;;;4.13;;
50495;SDS011;38806;51.554;5.704;2023-03-24T03:07:33;8.30;;;4.80;;
50495;SDS011;38806;51.554;5.704;2023-03-24T03:09:36;6.05;;;4.57;;
50495;SDS011;38806;51.554;5.704;2023-03-24T03:11:39;6.18;;;3.97;;
50495;SDS011;38806;51.554;5.704;2023-03-24T03:15:42;10.80;;;5.07;;
50495;SDS011;38806;51.554;5.704;2023-03-24T03:17:57;5.57;;;3.95;;
50495;SDS011;38806;51.554;5.704;2023-03-24T03:20:03;6.25;;;4.40;;
50495;SDS011;38806;51.554;5.704;2023-03-24T03:22:07;9.05;;;4.30;;
50495;SDS011;38806;51.554;5.704;2023-03-24T03:24:14;8.05;;;4.18;;
50495;SDS011;38806;51.554;5.704;2023-03-24T03:26:17;7.30;;;3.65;;
50495;SDS011;38806;51.554;5.704;2023-03-24T03:28:19;5.97;;;4.07;;
50495;SDS011;38806;51.554;5.704;2023-03-24T03:30:33;5.93;;;3.70;;
50495;SDS011;38806;51.554;5.704;2023-03-24T03:32:37;7.75;;;4.95;;
50495;SDS011;38806;51.554;5.704;2023-03-24T03:34:49;7.25;;;3.97;;
50495;SDS011;38806;51.554;5.704;2023-03-24T03:39:32;5.20;;;2.80;;
50495;SDS011;38806;51.554;5.704;2023-03-24T03:41:30;4.60;;;3.25;;
50495;SDS011;38806;51.554;5.704;2023-03-24T03:43:31;5.10;;;2.50;;
50495;SDS011;38806;51.554;5.704;2023-03-24T03:45:32;4.03;;;2.20;;
50495;SDS011;38806;51.554;5.704;2023-03-24T03:47:33;4.43;;;1.95;;
50495;SDS011;38806;51.554;5.704;2023-03-24T03:49:34;5.22;;;2.05;;
50495;SDS011;38806;51.554;5.704;2023-03-24T03:51:35;4.50;;;2.20;;
50495;SDS011;38806;51.554;5.704;2023-03-24T03:53:43;3.00;;;1.67;;
50495;SDS011;38806;51.554;5.704;2023-03-24T03:55:46;2.92;;;1.25;;
50495;SDS011;38806;51.554;5.704;2023-03-24T03:57:46;3.35;;;1.30;;
50495;SDS011;38806;51.554;5.704;2023-03-24T03:59:46;4.95;;;1.65;;
50495;SDS011;38806;51.554;5.704;2023-03-24T04:01:47;7.40;;;1.77;;
50495;SDS011;38806;51.554;5.704;2023-03-24T04:08:22;7.95;;;2.05;;
50495;SDS011;38806;51.554;5.704;2023-03-24T04:22:02;10.02;;;3.95;;
50495;SDS011;38806;51.554;5.704;2023-03-24T04:26:27;8.00;;;3.20;;
50495;SDS011;38806;51.554;5.704;2023-03-24T04:32:56;9.27;;;3.75;;
50495;SDS011;38806;51.554;5.704;2023-03-24T04:34:58;13.20;;;2.83;;
50495;SDS011;38806;51.554;5.704;2023-03-24T04:39:04;8.20;;;3.42;;
50495;SDS011;38806;51.554;5.704;2023-03-24T04:41:04;7.70;;;3.03;;
50495;SDS011;38806;51.554;5.704;2023-03-24T04:43:04;7.65;;;3.42;;
50495;SDS011;38806;51.554;5.704;2023-03-24T04:45:06;5.18;;;2.45;;
50495;SDS011;38806;51.554;5.704;2023-03-24T04:47:07;6.80;;;3.60;;
50495;SDS011;38806;51.554;5.704;2023-03-24T04:49:08;9.25;;;3.50;;
50495;SDS011;38806;51.554;5.704;2023-03-24T04:51:08;8.23;;;2.47;;
50495;SDS011;38806;51.554;5.704;2023-03-24T04:53:09;6.70;;;3.20;;
50495;SDS011;38806;51.554;5.704;2023-03-24T04:56:16;7.40;;;2.30;;
50495;SDS011;38806;51.554;5.704;2023-03-24T04:57:39;8.63;;;2.97;;
50495;SDS011;38806;51.554;5.704;2023-03-24T04:59:39;10.02;;;2.33;;
50495;SDS011;38806;51.554;5.704;2023-03-24T05:01:40;7.13;;;2.22;;
50495;SDS011;38806;51.554;5.704;2023-03-24T05:03:48;8.20;;;3.65;;
50495;SDS011;38806;51.554;5.704;2023-03-24T05:05:49;5.95;;;2.90;;
50495;SDS011;38806;51.554;5.704;2023-03-24T05:07:50;9.60;;;3.10;;
50495;SDS011;38806;51.554;5.704;2023-03-24T05:09:50;9.75;;;3.58;;
50495;SDS011;38806;51.554;5.704;2023-03-24T05:11:51;11.35;;;4.03;;
50495;SDS011;38806;51.554;5.704;2023-03-24T05:13:51;9.85;;;3.50;;
50495;SDS011;38806;51.554;5.704;2023-03-24T05:15:52;9.45;;;4.78;;
50495;SDS011;38806;51.554;5.704;2023-03-24T05:17:52;10.82;;;4.25;;
50495;SDS011;38806;51.554;5.704;2023-03-24T05:19:53;10.60;;;4.32;;
50495;SDS011;38806;51.554;5.704;2023-03-24T05:21:53;10.13;;;4.40;;
50495;SDS011;38806;51.554;5.704;2023-03-24T05:23:53;13.45;;;5.22;;
50495;SDS011;38806;51.554;5.704;2023-03-24T05:25:53;9.23;;;4.32;;
50495;SDS011;38806;51.554;5.704;2023-03-24T05:27:53;18.75;;;5.28;;
50495;SDS011;38806;51.554;5.704;2023-03-24T05:29:54;12.13;;;4.57;;
50495;SDS011;38806;51.554;5.704;2023-03-24T05:31:54;9.40;;;4.22;;
50495;SDS011;38806;51.554;5.704;2023-03-24T05:33:54;11.55;;;5.47;;
50495;SDS011;38806;51.554;5.704;2023-03-24T05:35:55;9.80;;;4.75;;
50495;SDS011;38806;51.554;5.704;2023-03-24T05:37:55;8.98;;;3.72;;
50495;SDS011;38806;51.554;5.704;2023-03-24T05:39:56;11.18;;;4.30;;
50495;SDS011;38806;51.554;5.704;2023-03-24T05:41:56;13.07;;;3.75;;
50495;SDS011;38806;51.554;5.704;2023-03-24T05:43:56;14.23;;;4.38;;
50495;SDS011;38806;51.554;5.704;2023-03-24T05:45:56;8.93;;;4.30;;
50495;SDS011;38806;51.554;5.704;2023-03-24T05:47:59;16.90;;;4.30;;
50495;SDS011;38806;51.554;5.704;2023-03-24T05:49:59;17.63;;;4.45;;
50495;SDS011;38806;51.554;5.704;2023-03-24T05:51:59;15.65;;;4.45;;
50495;SDS011;38806;51.554;5.704;2023-03-24T05:53:59;11.18;;;3.33;;
50495;SDS011;38806;51.554;5.704;2023-03-24T05:56:00;17.15;;;4.88;;
50495;SDS011;38806;51.554;5.704;2023-03-24T05:58:00;12.77;;;5.03;;
50495;SDS011;38806;51.554;5.704;2023-03-24T06:00:04;10.63;;;3.13;;
50495;SDS011;38806;51.554;5.704;2023-03-24T06:02:10;9.95;;;2.60;;
50495;SDS011;38806;51.554;5.704;2023-03-24T06:04:10;12.35;;;3.25;;
50495;SDS011;38806;51.554;5.704;2023-03-24T06:06:12;11.57;;;3.63;;
50495;SDS011;38806;51.554;5.704;2023-03-24T06:08:13;9.77;;;3.17;;
50495;SDS011;38806;51.554;5.704;2023-03-24T06:10:15;14.48;;;3.65;;
50495;SDS011;38806;51.554;5.704;2023-03-24T06:12:17;11.23;;;3.67;;
50495;SDS011;38806;51.554;5.704;2023-03-24T06:14:17;16.75;;;5.97;;
50495;SDS011;38806;51.554;5.704;2023-03-24T06:16:17;9.55;;;3.25;;
50495;SDS011;38806;51.554;5.704;2023-03-24T06:18:25;9.10;;;2.17;;
50495;SDS011;38806;51.554;5.704;2023-03-24T06:20:25;11.10;;;3.80;;
50495;SDS011;38806;51.554;5.704;2023-03-24T06:22:27;9.00;;;3.22;;
50495;SDS011;38806;51.554;5.704;2023-03-24T06:24:28;10.80;;;3.17;;
50495;SDS011;38806;51.554;5.704;2023-03-24T06:26:28;16.75;;;5.05;;
50495;SDS011;38806;51.554;5.704;2023-03-24T06:28:29;6.30;;;2.40;;
50495;SDS011;38806;51.554;5.704;2023-03-24T06:30:33;14.90;;;2.85;;
50495;SDS011;38806;51.554;5.704;2023-03-24T06:32:33;22.00;;;6.32;;
50495;SDS011;38806;51.554;5.704;2023-03-24T06:34:33;9.50;;;3.50;;
50495;SDS011;38806;51.554;5.704;2023-03-24T06:36:33;9.68;;;3.15;;
50495;SDS011;38806;51.554;5.704;2023-03-24T06:38:34;14.95;;;4.38;;
50495;SDS011;38806;51.554;5.704;2023-03-24T06:40:34;9.65;;;3.65;;
50495;SDS011;38806;51.554;5.704;2023-03-24T06:42:34;15.50;;;4.03;;
50495;SDS011;38806;51.554;5.704;2023-03-24T06:44:34;13.52;;;3.83;;
50495;SDS011;38806;51.554;5.704;2023-03-24T06:46:35;12.95;;;3.15;;
50495;SDS011;38806;51.554;5.704;2023-03-24T06:48:35;6.97;;;2.25;;
50495;SDS011;38806;51.554;5.704;2023-03-24T06:50:35;12.23;;;2.72;;
50495;SDS011;38806;51.554;5.704;2023-03-24T06:52:37;10.32;;;2.15;;
50495;SDS011;38806;51.554;5.704;2023-03-24T06:54:37;11.50;;;3.67;;
50495;SDS011;38806;51.554;5.704;2023-03-24T06:56:37;9.45;;;2.55;;
50495;SDS011;38806;51.554;5.704;2023-03-24T06:58:37;8.00;;;2.63;;
50495;SDS011;38806;51.554;5.704;2023-03-24T07:00:37;12.82;;;3.05;;
50495;SDS011;38806;51.554;5.704;2023-03-24T07:02:38;9.10;;;3.30;;
50495;SDS011;38806;51.554;5.704;2023-03-24T07:04:39;15.30;;;2.88;;
50495;SDS011;38806;51.554;5.704;2023-03-24T07:06:39;11.48;;;3.47;;
50495;SDS011;38806;51.554;5.704;2023-03-24T07:08:41;12.40;;;3.80;;
50495;SDS011;38806;51.554;5.704;2023-03-24T07:10:41;8.05;;;2.80;;
50495;SDS011;38806;51.554;5.704;2023-03-24T07:12:42;10.90;;;3.38;;
50495;SDS011;38806;51.554;5.704;2023-03-24T07:14:42;14.82;;;5.68;;
50495;SDS011;38806;51.554;5.704;2023-03-24T07:16:42;12.90;;;3.13;;
50495;SDS011;38806;51.554;5.704;2023-03-24T07:18:42;12.13;;;3.70;;
50495;SDS011;38806;51.554;5.704;2023-03-24T07:20:43;8.63;;;4.43;;
50495;SDS011;38806;51.554;5.704;2023-03-24T07:22:43;13.90;;;2.95;;
50495;SDS011;38806;51.554;5.704;2023-03-24T07:24:43;14.68;;;5.38;;
50495;SDS011;38806;51.554;5.704;2023-03-24T07:26:43;13.05;;;3.00;;
50495;SDS011;38806;51.554;5.704;2023-03-24T07:28:44;9.45;;;2.97;;
50495;SDS011;38806;51.554;5.704;2023-03-24T07:30:44;13.65;;;3.75;;
50495;SDS011;38806;51.554;5.704;2023-03-24T07:32:44;14.02;;;2.70;;
50495;SDS011;38806;51.554;5.704;2023-03-24T07:34:45;17.10;;;3.80;;
50495;SDS011;38806;51.554;5.704;2023-03-24T07:36:46;12.20;;;2.55;;
50495;SDS011;38806;51.554;5.704;2023-03-24T07:38:46;9.73;;;3.10;;
50495;SDS011;38806;51.554;5.704;2023-03-24T07:40:46;10.45;;;3.58;;
50495;SDS011;38806;51.554;5.704;2023-03-24T07:42:47;9.13;;;2.83;;
50495;SDS011;38806;51.554;5.704;2023-03-24T07:44:47;7.65;;;2.63;;
50495;SDS011;38806;51.554;5.704;2023-03-24T07:46:47;13.23;;;4.10;;
50495;SDS011;38806;51.554;5.704;2023-03-24T07:48:47;16.95;;;3.70;;
50495;SDS011;38806;51.554;5.704;2023-03-24T07:50:47;12.82;;;3.05;;
50495;SDS011;38806;51.554;5.704;2023-03-24T07:52:48;8.70;;;3.47;;
50495;SDS011;38806;51.554;5.704;2023-03-24T07:54:49;15.23;;;3.97;;
50495;SDS011;38806;51.554;5.704;2023-03-24T07:56:49;14.07;;;4.95;;
50495;SDS011;38806;51.554;5.704;2023-03-24T07:58:49;10.68;;;4.10;;
50495;SDS011;38806;51.554;5.704;2023-03-24T08:00:50;11.35;;;4.28;;
50495;SDS011;38806;51.554;5.704;2023-03-24T08:02:51;26.60;;;4.72;;
50495;SDS011;38806;51.554;5.704;2023-03-24T08:04:51;14.30;;;2.85;;
50495;SDS011;38806;51.554;5.704;2023-03-24T08:06:55;9.25;;;3.05;;
50495;SDS011;38806;51.554;5.704;2023-03-24T08:08:58;13.77;;;3.05;;
50495;SDS011;38806;51.554;5.704;2023-03-24T08:10:59;8.50;;;3.25;;
50495;SDS011;38806;51.554;5.704;2023-03-24T08:12:59;8.80;;;2.63;;
50495;SDS011;38806;51.554;5.704;2023-03-24T08:14:59;11.98;;;3.08;;
50495;SDS011;38806;51.554;5.704;2023-03-24T08:16:59;9.85;;;3.58;;
50495;SDS011;38806;51.554;5.704;2023-03-24T08:19:00;7.72;;;2.92;;
50495;SDS011;38806;51.554;5.704;2023-03-24T08:21:00;8.43;;;3.00;;
50495;SDS011;38806;51.554;5.704;2023-03-24T08:23:01;22.27;;;5.90;;
50495;SDS011;38806;51.554;5.704;2023-03-24T08:25:03;11.32;;;3.88;;
50495;SDS011;38806;51.554;5.704;2023-03-24T08:27:04;11.35;;;2.95;;
50495;SDS011;38806;51.554;5.704;2023-03-24T08:29:07;14.07;;;3.60;;
50495;SDS011;38806;51.554;5.704;2023-03-24T08:31:08;12.10;;;3.58;;
50495;SDS011;38806;51.554;5.704;2023-03-24T08:33:08;9.43;;;2.65;;
50495;SDS011;38806;51.554;5.704;2023-03-24T08:35:10;12.13;;;3.65;;
50495;SDS011;38806;51.554;5.704;2023-03-24T08:37:13;6.18;;;2.80;;
50495;SDS011;38806;51.554;5.704;2023-03-24T08:39:13;13.75;;;3.17;;
50495;SDS011;38806;51.554;5.704;2023-03-24T08:41:14;8.85;;;2.92;;
50495;SDS011;38806;51.554;5.704;2023-03-24T08:43:15;10.52;;;3.33;;
50495;SDS011;38806;51.554;5.704;2023-03-24T08:45:16;14.68;;;4.20;;
50495;SDS011;38806;51.554;5.704;2023-03-24T08:47:19;10.02;;;4.03;;
50495;SDS011;38806;51.554;5.704;2023-03-24T08:49:20;8.10;;;2.78;;
50495;SDS011;38806;51.554;5.704;2023-03-24T08:51:20;7.93;;;3.70;;
50495;SDS011;38806;51.554;5.704;2023-03-24T08:53:20;15.67;;;3.73;;
50495;SDS011;38806;51.554;5.704;2023-03-24T08:55:21;11.73;;;3.60;;
50495;SDS011;38806;51.554;5.704;2023-03-24T08:57:21;11.52;;;3.05;;
50495;SDS011;38806;51.554;5.704;2023-03-24T08:59:21;7.80;;;2.20;;
50495;SDS011;38806;51.554;5.704;2023-03-24T09:01:22;14.15;;;3.17;;
50495;SDS011;38806;51.554;5.704;2023-03-24T09:03:22;8.82;;;2.13;;
50495;SDS011;38806;51.554;5.704;2023-03-24T09:05:23;10.60;;;3.10;;
50495;SDS011;38806;51.554;5.704;2023-03-24T09:07:24;9.90;;;2.40;;
50495;SDS011;38806;51.554;5.704;2023-03-24T09:09:25;10.00;;;2.70;;
50495;SDS011;38806;51.554;5.704;2023-03-24T09:11:26;10.23;;;2.22;;
50495;SDS011;38806;51.554;5.704;2023-03-24T09:13:26;6.65;;;3.25;;
50495;SDS011;38806;51.554;5.704;2023-03-24T09:15:26;11.48;;;2.58;;
50495;SDS011;38806;51.554;5.704;2023-03-24T09:17:26;14.15;;;4.13;;
50495;SDS011;38806;51.554;5.704;2023-03-24T09:19:27;12.05;;;3.53;;
50495;SDS011;38806;51.554;5.704;2023-03-24T09:21:27;11.00;;;2.80;;
50495;SDS011;38806;51.554;5.704;2023-03-24T09:23:27;13.80;;;3.38;;
50495;SDS011;38806;51.554;5.704;2023-03-24T09:25:28;12.57;;;2.95;;
50495;SDS011;38806;51.554;5.704;2023-03-24T09:27:28;10.77;;;3.00;;
50495;SDS011;38806;51.554;5.704;2023-03-24T09:29:28;12.77;;;3.17;;
50495;SDS011;38806;51.554;5.704;2023-03-24T09:31:29;12.38;;;2.63;;
50495;SDS011;38806;51.554;5.704;2023-03-24T09:33:29;13.18;;;2.35;;
50495;SDS011;38806;51.554;5.704;2023-03-24T09:35:30;18.88;;;4.13;;
50495;SDS011;38806;51.554;5.704;2023-03-24T09:37:30;11.30;;;3.28;;
50495;SDS011;38806;51.554;5.704;2023-03-24T09:39:31;10.73;;;2.58;;
50495;SDS011;38806;51.554;5.704;2023-03-24T09:41:33;10.48;;;2.25;;
50495;SDS011;38806;51.554;5.704;2023-03-24T09:43:38;9.23;;;2.17;;
50495;SDS011;38806;51.554;5.704;2023-03-24T09:45:43;10.43;;;3.90;;
50495;SDS011;38806;51.554;5.704;2023-03-24T09:47:48;11.50;;;3.15;;
50495;SDS011;38806;51.554;5.704;2023-03-24T09:49:50;8.90;;;2.38;;
50495;SDS011;38806;51.554;5.704;2023-03-24T09:52:04;8.30;;;2.70;;
50495;SDS011;38806;51.554;5.704;2023-03-24T09:54:13;7.15;;;2.58;;
50495;SDS011;38806;51.554;5.704;2023-03-24T09:56:17;10.55;;;3.15;;
50495;SDS011;38806;51.554;5.704;2023-03-24T09:58:18;12.70;;;2.70;;
50495;SDS011;38806;51.554;5.704;2023-03-24T10:00:20;6.32;;;2.63;;
50495;SDS011;38806;51.554;5.704;2023-03-24T10:02:21;12.02;;;3.42;;
50495;SDS011;38806;51.554;5.704;2023-03-24T10:04:23;7.93;;;2.88;;
50495;SDS011;38806;51.554;5.704;2023-03-24T10:06:27;13.02;;;2.75;;
50495;SDS011;38806;51.554;5.704;2023-03-24T10:08:31;9.45;;;2.17;;
50495;SDS011;38806;51.554;5.704;2023-03-24T10:10:44;12.15;;;3.10;;
50495;SDS011;38806;51.554;5.704;2023-03-24T10:12:47;12.52;;;2.97;;
50495;SDS011;38806;51.554;5.704;2023-03-24T10:15:03;8.40;;;2.90;;
50495;SDS011;38806;51.554;5.704;2023-03-24T10:17:12;10.38;;;2.47;;
50495;SDS011;38806;51.554;5.704;2023-03-24T10:19:34;10.57;;;3.15;;
50495;SDS011;38806;51.554;5.704;2023-03-24T10:21:37;9.18;;;3.35;;
50495;SDS011;38806;51.554;5.704;2023-03-24T10:25:44;12.55;;;2.47;;
50495;SDS011;38806;51.554;5.704;2023-03-24T10:27:52;11.75;;;3.70;;
50495;SDS011;38806;51.554;5.704;2023-03-24T10:30:02;5.45;;;2.22;;
50495;SDS011;38806;51.554;5.704;2023-03-24T10:34:15;5.10;;;2.67;;
50495;SDS011;38806;51.554;5.704;2023-03-24T10:36:17;12.45;;;2.75;;
50495;SDS011;38806;51.554;5.704;2023-03-24T10:38:18;11.27;;;3.30;;
50495;SDS011;38806;51.554;5.704;2023-03-24T10:40:19;7.60;;;3.42;;
50495;SDS011;38806;51.554;5.704;2023-03-24T10:42:24;13.80;;;4.25;;
50495;SDS011;38806;51.554;5.704;2023-03-24T10:44:25;8.25;;;2.25;;
50495;SDS011;38806;51.554;5.704;2023-03-24T10:46:27;7.18;;;2.47;;
50495;SDS011;38806;51.554;5.704;2023-03-24T10:48:33;10.35;;;3.42;;
50495;SDS011;38806;51.554;5.704;2023-03-24T10:50:33;9.25;;;2.67;;
50495;SDS011;38806;51.554;5.704;2023-03-24T10:52:38;6.00;;;1.92;;
50495;SDS011;38806;51.554;5.704;2023-03-24T10:54:40;7.60;;;2.15;;
50495;SDS011;38806;51.554;5.704;2023-03-24T10:58:59;9.07;;;2.15;;
50495;SDS011;38806;51.554;5.704;2023-03-24T11:00:59;9.50;;;2.87;;
50495;SDS011;38806;51.554;5.704;2023-03-24T11:03:03;7.03;;;2.60;;
50495;SDS011;38806;51.554;5.704;2023-03-24T11:05:17;6.97;;;2.40;;
50495;SDS011;38806;51.554;5.704;2023-03-24T11:07:19;12.07;;;2.50;;
50495;SDS011;38806;51.554;5.704;2023-03-24T11:09:21;6.97;;;1.73;;
50495;SDS011;38806;51.554;5.704;2023-03-24T11:11:30;6.53;;;2.95;;
50495;SDS011;38806;51.554;5.704;2023-03-24T11:13:31;5.93;;;2.10;;
50495;SDS011;38806;51.554;5.704;2023-03-24T11:15:35;5.32;;;2.00;;
50495;SDS011;38806;51.554;5.704;2023-03-24T11:17:36;9.00;;;2.42;;
50495;SDS011;38806;51.554;5.704;2023-03-24T11:19:36;10.10;;;2.70;;
50495;SDS011;38806;51.554;5.704;2023-03-24T11:21:37;8.30;;;2.35;;
50495;SDS011;38806;51.554;5.704;2023-03-24T11:23:40;6.32;;;2.67;;
50495;SDS011;38806;51.554;5.704;2023-03-24T11:25:45;9.90;;;3.08;;
50495;SDS011;38806;51.554;5.704;2023-03-24T11:27:46;6.32;;;2.30;;
50495;SDS011;38806;51.554;5.704;2023-03-24T11:29:48;8.65;;;2.45;;
50495;SDS011;38806;51.554;5.704;2023-03-24T11:31:50;10.55;;;1.90;;
50495;SDS011;38806;51.554;5.704;2023-03-24T11:33:58;6.25;;;2.00;;
50495;SDS011;38806;51.554;5.704;2023-03-24T11:38:18;8.27;;;3.20;;
50495;SDS011;38806;51.554;5.704;2023-03-24T11:40:20;7.03;;;2.22;;
50495;SDS011;38806;51.554;5.704;2023-03-24T11:42:25;7.43;;;2.00;;
50495;SDS011;38806;51.554;5.704;2023-03-24T11:44:28;7.70;;;2.20;;
50495;SDS011;38806;51.554;5.704;2023-03-24T11:46:29;5.60;;;1.95;;
50495;SDS011;38806;51.554;5.704;2023-03-24T11:48:32;8.85;;;2.58;;
50495;SDS011;38806;51.554;5.704;2023-03-24T11:50:34;7.45;;;2.15;;
50495;SDS011;38806;51.554;5.704;2023-03-24T11:52:43;7.13;;;2.90;;
50495;SDS011;38806;51.554;5.704;2023-03-24T11:54:44;8.23;;;1.97;;
50495;SDS011;38806;51.554;5.704;2023-03-24T11:56:45;8.33;;;2.37;;
50495;SDS011;38806;51.554;5.704;2023-03-24T11:58:54;6.20;;;1.88;;
50495;SDS011;38806;51.554;5.704;2023-03-24T12:00:57;7.97;;;2.13;;
50495;SDS011;38806;51.554;5.704;2023-03-24T12:03:14;6.43;;;2.25;;
50495;SDS011;38806;51.554;5.704;2023-03-24T12:05:30;9.65;;;2.53;;
50495;SDS011;38806;51.554;5.704;2023-03-24T12:09:39;7.97;;;2.17;;
50495;SDS011;38806;51.554;5.704;2023-03-24T12:13:45;11.43;;;3.37;;
50495;SDS011;38806;51.554;5.704;2023-03-24T12:15:51;11.35;;;3.42;;
50495;SDS011;38806;51.554;5.704;2023-03-24T12:18:07;7.60;;;2.92;;
50495;SDS011;38806;51.554;5.704;2023-03-24T12:24:35;13.80;;;3.92;;
50495;SDS011;38806;51.554;5.704;2023-03-24T12:26:40;14.40;;;3.50;;
50495;SDS011;38806;51.554;5.704;2023-03-24T12:31:08;12.07;;;3.72;;
50495;SDS011;38806;51.554;5.704;2023-03-24T12:39:55;6.70;;;1.40;;
50495;SDS011;38806;51.554;5.704;2023-03-24T12:46:32;4.03;;;0.77;;
50495;SDS011;38806;51.554;5.704;2023-03-24T12:50:36;4.30;;;1.10;;
50495;SDS011;38806;51.554;5.704;2023-03-24T12:57:18;3.33;;;1.65;;
50495;SDS011;38806;51.554;5.704;2023-03-24T12:59:25;6.38;;;2.42;;
50495;SDS011;38806;51.554;5.704;2023-03-24T13:01:35;2.35;;;0.93;;
50495;SDS011;38806;51.554;5.704;2023-03-24T13:03:45;5.25;;;1.35;;
50495;SDS011;38806;51.554;5.704;2023-03-24T13:05:48;6.10;;;1.63;;
50495;SDS011;38806;51.554;5.704;2023-03-24T13:07:50;3.10;;;1.45;;
50495;SDS011;38806;51.554;5.704;2023-03-24T13:14:33;4.43;;;1.80;;
50495;SDS011;38806;51.554;5.704;2023-03-24T13:16:37;6.70;;;1.50;;
50495;SDS011;38806;51.554;5.704;2023-03-24T13:18:40;4.88;;;1.48;;
50495;SDS011;38806;51.554;5.704;2023-03-24T13:20:45;6.07;;;1.23;;
50495;SDS011;38806;51.554;5.704;2023-03-24T13:22:47;5.32;;;1.17;;
50495;SDS011;38806;51.554;5.704;2023-03-24T13:24:47;3.13;;;1.48;;
50495;SDS011;38806;51.554;5.704;2023-03-24T13:31:19;4.15;;;1.05;;
50495;SDS011;38806;51.554;5.704;2023-03-24T13:33:22;4.38;;;1.63;;
50495;SDS011;38806;51.554;5.704;2023-03-24T13:37:28;2.80;;;0.98;;
50495;SDS011;38806;51.554;5.704;2023-03-24T13:39:32;5.15;;;2.03;;
50495;SDS011;38806;51.554;5.704;2023-03-24T13:41:36;4.50;;;1.65;;
50495;SDS011;38806;51.554;5.704;2023-03-24T13:43:36;2.17;;;0.77;;
50495;SDS011;38806;51.554;5.704;2023-03-24T13:50:10;6.10;;;1.35;;
50495;SDS011;38806;51.554;5.704;2023-03-24T13:52:19;8.75;;;1.55;;
50495;SDS011;38806;51.554;5.704;2023-03-24T13:54:21;5.80;;;1.88;;
50495;SDS011;38806;51.554;5.704;2023-03-24T13:56:24;5.32;;;1.65;;
50495;SDS011;38806;51.554;5.704;2023-03-24T13:58:26;6.85;;;1.58;;